Time;durP1;ratioP1;P1;durP2;ratioP2;P2;SDS_P1;SDS_P2;PMS_P1;PMS_P2;Temp;Humidity;BMP_temperature;BMP_pressure;BME280_temperature;BME280_humidity;BME280_pressure;Samples;Min_cycle;Max_cycle;Signal;HPM_P1;HPM_P2
2022/04/14 00:00:54;;;;;;;7.15;4.00;;;;;;;;;;4969156;28;20314;-65
2022/04/14 00:03:20;;;;;;;9.52;3.90;;;;;;;;;;4968640;28;20026;-65
2022/04/14 00:05:46;;;;;;;8.10;3.42;;;;;;;;;;4968828;28;20422;-65
2022/04/14 00:08:11;;;;;;;11.88;5.20;;;;;;;;;;4968525;28;20455;-65
2022/04/14 00:10:36;;;;;;;8.05;4.05;;;;;;;;;;4968703;28;20397;-65
2022/04/14 00:13:02;;;;;;;7.72;3.42;;;;;;;;;;4968679;28;20329;-65
2022/04/14 00:15:28;;;;;;;6.57;3.88;;;;;;;;;;4970214;28;20582;-64
2022/04/14 00:17:54;;;;;;;6.82;3.45;;;;;;;;;;4972414;28;20366;-65
2022/04/14 00:20:19;;;;;;;10.07;4.15;;;;;;;;;;4972264;28;20467;-65
2022/04/14 00:22:45;;;;;;;8.95;4.07;;;;;;;;;;4973478;28;20383;-65
2022/04/14 00:25:11;;;;;;;10.43;4.85;;;;;;;;;;4972780;28;20095;-65
2022/04/14 00:27:37;;;;;;;8.27;4.15;;;;;;;;;;4972407;28;20499;-65
2022/04/14 00:30:03;;;;;;;10.73;4.93;;;;;;;;;;4971836;28;20548;-65
2022/04/14 00:32:30;;;;;;;9.50;3.83;;;;;;;;;;4972250;28;20055;-64
2022/04/14 00:34:56;;;;;;;8.32;4.10;;;;;;;;;;4972124;28;20508;-65
2022/04/14 00:37:22;;;;;;;7.13;3.65;;;;;;;;;;4972199;28;20476;-65
2022/04/14 00:39:49;;;;;;;9.85;4.05;;;;;;;;;;4971782;28;20497;-65
2022/04/14 00:42:14;;;;;;;8.25;3.67;;;;;;;;;;4972010;28;20025;-65
2022/04/14 00:44:40;;;;;;;8.27;3.95;;;;;;;;;;4971640;28;20115;-64
2022/04/14 00:47:07;;;;;;;10.25;4.38;;;;;;;;;;4972584;28;20348;-65
2022/04/14 00:49:33;;;;;;;9.02;4.20;;;;;;;;;;4971428;28;20357;-65
2022/04/14 00:52:00;;;;;;;8.48;4.15;;;;;;;;;;4973305;28;20321;-65
2022/04/14 00:54:25;;;;;;;12.57;4.57;;;;;;;;;;4971751;28;20040;-64
2022/04/14 00:56:50;;;;;;;11.13;3.88;;;;;;;;;;4971554;28;20433;-64
2022/04/14 00:59:16;;;;;;;16.05;4.28;;;;;;;;;;4971488;28;20451;-65
2022/04/14 01:01:41;;;;;;;8.07;3.72;;;;;;;;;;4965504;28;20447;-65
2022/04/14 01:04:08;;;;;;;9.93;4.30;;;;;;;;;;4954446;28;20425;-65
2022/04/14 01:06:33;;;;;;;10.25;3.40;;;;;;;;;;4953487;28;20314;-65
2022/04/14 01:11:44;;;;;;;8.18;4.22;;;;;;;;;;4973912;28;20353;-65
2022/04/14 01:14:34;;;;;;;12.60;4.18;;;;;;;;;;4972058;28;20440;-65
2022/04/14 01:17:02;;;;;;;8.45;4.05;;;;;;;;;;4971787;28;20437;-65
2022/04/14 01:19:28;;;;;;;7.38;3.72;;;;;;;;;;4972728;28;20405;-65
2022/04/14 01:22:01;;;;;;;9.38;4.65;;;;;;;;;;4971369;28;21067;-65
2022/04/14 01:24:26;;;;;;;8.52;3.83;;;;;;;;;;4961028;28;20417;-65
2022/04/14 01:26:53;;;;;;;8.75;3.80;;;;;;;;;;4970102;28;20448;-65
2022/04/14 01:29:22;;;;;;;10.43;4.30;;;;;;;;;;4953444;28;20045;-65
2022/04/14 01:31:48;;;;;;;;;;;;;;;;;;4965076;28;20376;-65
2022/04/14 01:34:14;;;;;;;11.23;4.20;;;;;;;;;;4970909;28;20286;-64
2022/04/14 01:36:39;;;;;;;8.30;4.47;;;;;;;;;;4970729;28;20376;-65
2022/04/14 01:39:04;;;;;;;9.60;4.07;;;;;;;;;;4971170;28;20405;-65
2022/04/14 01:41:30;;;;;;;8.30;3.83;;;;;;;;;;4971015;28;20369;-65
2022/04/14 01:43:55;;;;;;;6.10;3.50;;;;;;;;;;4970752;28;20107;-64
2022/04/14 01:46:22;;;;;;;8.75;4.38;;;;;;;;;;4970589;28;20474;-65
2022/04/14 01:48:48;;;;;;;9.73;4.55;;;;;;;;;;4971784;28;20447;-64
2022/04/14 01:51:13;;;;;;;5.72;3.30;;;;;;;;;;4970927;28;20479;-64
2022/04/14 01:53:39;;;;;;;7.07;3.53;;;;;;;;;;4971330;28;20452;-65
2022/04/14 01:56:04;;;;;;;9.70;4.35;;;;;;;;;;4971818;28;20033;-65
2022/04/14 01:58:29;;;;;;;5.57;3.25;;;;;;;;;;4971820;28;20433;-66
2022/04/14 02:00:55;;;;;;;12.35;4.78;;;;;;;;;;4971889;28;20330;-65
2022/04/14 02:03:20;;;;;;;6.50;3.90;;;;;;;;;;4972238;28;20525;-65
2022/04/14 02:05:45;;;;;;;8.75;4.18;;;;;;;;;;4971240;28;20333;-64
2022/04/14 02:08:11;;;;;;;7.63;3.50;;;;;;;;;;4970962;28;20056;-65
2022/04/14 02:10:36;;;;;;;8.00;3.67;;;;;;;;;;4971067;28;20443;-65
2022/04/14 02:13:01;;;;;;;6.75;3.05;;;;;;;;;;4970381;28;20372;-64
2022/04/14 02:15:27;;;;;;;8.77;3.45;;;;;;;;;;4970570;28;20360;-65
2022/04/14 02:17:52;;;;;;;8.45;3.90;;;;;;;;;;4970259;28;20333;-65
2022/04/14 02:20:17;;;;;;;7.22;3.58;;;;;;;;;;4971592;28;20349;-65
2022/04/14 02:22:43;;;;;;;7.18;3.55;;;;;;;;;;4970451;28;20416;-64
2022/04/14 02:25:09;;;;;;;7.75;4.18;;;;;;;;;;4970858;28;20037;-65
2022/04/14 02:27:34;;;;;;;7.93;3.53;;;;;;;;;;4970635;28;20033;-65
2022/04/14 02:29:59;;;;;;;7.63;3.65;;;;;;;;;;4970216;28;20495;-65
2022/04/14 02:32:25;;;;;;;10.27;4.20;;;;;;;;;;4970522;28;20026;-65
2022/04/14 02:34:50;;;;;;;8.57;4.15;;;;;;;;;;4970072;28;20497;-65
2022/04/14 02:37:15;;;;;;;8.48;4.50;;;;;;;;;;4970009;28;20060;-64
2022/04/14 02:39:41;;;;;;;6.63;3.45;;;;;;;;;;4969008;28;20459;-65
2022/04/14 02:42:06;;;;;;;7.55;3.78;;;;;;;;;;4970114;28;20433;-65
2022/04/14 02:44:31;;;;;;;9.77;4.28;;;;;;;;;;4970829;28;20068;-65
2022/04/14 02:46:57;;;;;;;9.38;3.78;;;;;;;;;;4969501;28;20446;-65
2022/04/14 02:49:23;;;;;;;9.32;4.18;;;;;;;;;;4970927;28;20486;-64
2022/04/14 02:51:49;;;;;;;9.02;3.95;;;;;;;;;;4970269;28;20099;-64
2022/04/14 02:54:14;;;;;;;7.03;3.35;;;;;;;;;;4969741;28;20029;-64
2022/04/14 02:56:39;;;;;;;8.68;3.25;;;;;;;;;;4970697;28;20410;-68
2022/04/14 02:59:04;;;;;;;7.75;3.72;;;;;;;;;;4969734;28;20405;-65
2022/04/14 03:01:30;;;;;;;9.27;4.18;;;;;;;;;;4969563;28;20433;-65
2022/04/14 03:03:55;;;;;;;6.65;3.88;;;;;;;;;;4970600;28;20304;-64
2022/04/14 03:06:21;;;;;;;9.32;4.03;;;;;;;;;;4969715;28;20420;-65
2022/04/14 03:08:46;;;;;;;8.05;3.90;;;;;;;;;;4969558;28;20353;-65
2022/04/14 03:11:12;;;;;;;6.97;3.63;;;;;;;;;;4969948;28;20136;-65
2022/04/14 03:13:38;;;;;;;7.47;4.07;;;;;;;;;;4969754;28;20060;-64
2022/04/14 03:16:04;;;;;;;8.07;4.47;;;;;;;;;;4969673;28;20444;-64
2022/04/14 03:18:29;;;;;;;8.90;4.25;;;;;;;;;;4970203;28;20420;-65
2022/04/14 03:20:55;;;;;;;5.85;3.65;;;;;;;;;;4970350;28;20391;-65
2022/04/14 03:23:20;;;;;;;9.63;3.72;;;;;;;;;;4969280;28;20302;-64
2022/04/14 03:25:45;;;;;;;13.10;4.07;;;;;;;;;;4969503;28;20448;-65
2022/04/14 03:28:11;;;;;;;10.85;4.15;;;;;;;;;;4969294;28;20429;-64
2022/04/14 03:30:36;;;;;;;6.13;3.70;;;;;;;;;;4969309;28;20321;-65
2022/04/14 03:33:01;;;;;;;9.18;3.53;;;;;;;;;;4969563;28;20061;-65
2022/04/14 03:35:27;;;;;;;8.88;3.80;;;;;;;;;;4969556;28;20476;-65
2022/04/14 03:37:52;;;;;;;9.80;3.58;;;;;;;;;;4969383;28;20413;-65
2022/04/14 03:40:18;;;;;;;12.15;4.18;;;;;;;;;;4969986;28;20341;-64
2022/04/14 03:42:43;;;;;;;6.93;3.65;;;;;;;;;;4970485;28;20336;-65
2022/04/14 03:45:09;;;;;;;9.63;4.82;;;;;;;;;;4968999;28;20499;-65
2022/04/14 03:47:34;;;;;;;7.47;4.20;;;;;;;;;;4969159;28;20461;-65
2022/04/14 03:50:00;;;;;;;7.18;3.65;;;;;;;;;;4969780;28;20488;-65
2022/04/14 03:52:25;;;;;;;9.05;4.28;;;;;;;;;;4973146;28;20500;-64
2022/04/14 03:54:51;;;;;;;10.35;4.88;;;;;;;;;;4973085;28;20428;-64
2022/04/14 03:57:16;;;;;;;7.78;3.38;;;;;;;;;;4972833;28;20436;-65
2022/04/14 03:59:41;;;;;;;7.13;4.00;;;;;;;;;;4972922;28;20061;-64
2022/04/14 04:02:07;;;;;;;6.78;3.70;;;;;;;;;;4973363;28;20368;-64
2022/04/14 04:04:32;;;;;;;8.35;4.10;;;;;;;;;;4972777;28;20033;-65
2022/04/14 04:06:58;;;;;;;7.65;3.70;;;;;;;;;;4973849;28;20462;-65
2022/04/14 04:09:24;;;;;;;7.47;3.78;;;;;;;;;;4973492;28;20305;-65
2022/04/14 04:11:50;;;;;;;8.65;4.28;;;;;;;;;;4972822;28;20056;-65
2022/04/14 04:14:15;;;;;;;14.55;4.35;;;;;;;;;;4972820;28;20372;-65
2022/04/14 04:16:41;;;;;;;12.32;4.47;;;;;;;;;;4972521;28;20346;-64
2022/04/14 04:19:07;;;;;;;7.78;3.85;;;;;;;;;;4973422;28;20306;-64
2022/04/14 04:21:33;;;;;;;9.82;4.60;;;;;;;;;;4972877;28;20349;-65
2022/04/14 04:23:59;;;;;;;7.40;3.67;;;;;;;;;;4972144;28;20360;-65
2022/04/14 04:26:24;;;;;;;8.63;3.72;;;;;;;;;;4972692;28;20152;-65
2022/04/14 04:28:49;;;;;;;9.27;4.25;;;;;;;;;;4972499;28;20448;-65
2022/04/14 04:31:14;;;;;;;7.18;4.18;;;;;;;;;;4972216;28;20381;-64
2022/04/14 04:33:40;;;;;;;10.18;4.88;;;;;;;;;;4973527;28;20091;-65
2022/04/14 04:36:07;;;;;;;8.75;4.18;;;;;;;;;;4972286;28;20437;-64
2022/04/14 04:38:32;;;;;;;8.50;4.25;;;;;;;;;;4973527;28;20353;-64
2022/04/14 04:40:58;;;;;;;10.32;4.07;;;;;;;;;;4972114;28;20400;-65
2022/04/14 04:43:24;;;;;;;9.93;4.65;;;;;;;;;;4973715;28;20368;-65
2022/04/14 04:45:50;;;;;;;10.90;4.10;;;;;;;;;;4972579;28;20021;-64
2022/04/14 04:48:15;;;;;;;7.05;3.92;;;;;;;;;;4972303;28;20324;-65
2022/04/14 04:50:40;;;;;;;7.88;4.68;;;;;;;;;;4954491;28;20021;-64
2022/04/14 04:53:06;;;;;;;9.57;4.10;;;;;;;;;;4972591;28;20435;-65
2022/04/14 04:55:31;;;;;;;10.63;4.75;;;;;;;;;;4972273;28;20554;-65
2022/04/14 04:57:56;;;;;;;7.30;3.88;;;;;;;;;;4973262;28;20421;-65
2022/04/14 05:00:22;;;;;;;11.23;4.93;;;;;;;;;;4972760;28;20025;-66
2022/04/14 05:02:47;;;;;;;9.30;4.28;;;;;;;;;;4970976;28;20433;-65
2022/04/14 05:05:12;;;;;;;8.68;4.15;;;;;;;;;;4971725;28;20416;-65
2022/04/14 05:07:38;;;;;;;11.38;4.53;;;;;;;;;;4971549;28;20045;-65
2022/04/14 05:10:04;;;;;;;10.27;4.43;;;;;;;;;;4972617;28;20388;-65
2022/04/14 05:12:29;;;;;;;8.10;4.28;;;;;;;;;;4971770;28;20057;-65
2022/04/14 05:14:54;;;;;;;9.73;4.68;;;;;;;;;;4972875;28;20404;-65
2022/04/14 05:17:19;;;;;;;9.93;4.60;;;;;;;;;;4971283;28;20056;-65
2022/04/14 05:19:45;;;;;;;8.60;4.45;;;;;;;;;;4972834;28;20441;-65
2022/04/14 05:22:10;;;;;;;9.18;4.00;;;;;;;;;;4971714;28;20053;-65
2022/04/14 05:24:35;;;;;;;10.80;4.13;;;;;;;;;;4972141;28;20406;-65
2022/04/14 05:27:01;;;;;;;8.60;4.38;;;;;;;;;;4973072;28;20417;-65
2022/04/14 05:29:26;;;;;;;8.27;3.92;;;;;;;;;;4971496;28;20511;-65
2022/04/14 05:31:51;;;;;;;11.57;4.50;;;;;;;;;;4971597;28;20431;-65
2022/04/14 05:34:17;;;;;;;8.25;3.97;;;;;;;;;;4971372;28;20440;-65
2022/04/14 05:36:42;;;;;;;10.27;4.55;;;;;;;;;;4953512;28;20431;-65
2022/04/14 05:39:08;;;;;;;12.35;4.75;;;;;;;;;;4971060;28;20369;-65
2022/04/14 05:41:33;;;;;;;9.27;4.60;;;;;;;;;;4972072;28;20357;-66
2022/04/14 05:43:58;;;;;;;9.45;4.57;;;;;;;;;;4970482;28;20049;-65
2022/04/14 05:46:24;;;;;;;9.82;4.47;;;;;;;;;;4970577;28;20044;-65
2022/04/14 05:48:50;;;;;;;12.15;4.90;;;;;;;;;;4970802;28;20334;-65
2022/04/14 05:51:16;;;;;;;9.02;4.03;;;;;;;;;;4969409;28;20136;-65
2022/04/14 05:53:41;;;;;;;7.72;4.13;;;;;;;;;;4971241;28;20388;-65
2022/04/14 05:56:07;;;;;;;10.52;4.63;;;;;;;;;;4971415;28;20455;-65
2022/04/14 05:58:32;;;;;;;10.35;5.20;;;;;;;;;;4970801;28;20508;-65
2022/04/14 06:00:57;;;;;;;6.97;4.18;;;;;;;;;;4970716;28;20099;-65
2022/04/14 06:03:24;;;;;;;8.10;4.30;;;;;;;;;;4970990;28;20352;-65
2022/04/14 06:05:49;;;;;;;10.73;4.45;;;;;;;;;;4970879;28;20411;-65
2022/04/14 06:08:15;;;;;;;8.98;4.50;;;;;;;;;;4971012;28;20404;-65
2022/04/14 06:10:40;;;;;;;11.15;4.55;;;;;;;;;;4970235;28;20498;-65
2022/04/14 06:13:05;;;;;;;11.43;4.68;;;;;;;;;;4970963;28;20907;-65
2022/04/14 06:15:31;;;;;;;10.38;4.70;;;;;;;;;;4970390;28;20445;-65
2022/04/14 06:17:57;;;;;;;10.68;4.78;;;;;;;;;;4970316;28;20352;-65
2022/04/14 06:20:22;;;;;;;10.20;4.35;;;;;;;;;;4968604;28;20305;-65
2022/04/14 06:22:47;;;;;;;9.73;4.47;;;;;;;;;;4970205;28;20388;-65
2022/04/14 06:25:13;;;;;;;8.15;4.38;;;;;;;;;;4971320;28;20333;-65
2022/04/14 06:27:45;;;;;;;10.88;4.43;;;;;;;;;;4971008;28;20033;-65
2022/04/14 06:30:13;;;;;;;7.18;3.92;;;;;;;;;;4970105;28;20340;-65
2022/04/14 06:32:38;;;;;;;10.07;4.32;;;;;;;;;;4971973;28;20432;-65
2022/04/14 06:35:06;;;;;;;7.95;3.83;;;;;;;;;;4970234;28;20448;-65
2022/04/14 06:37:31;;;;;;;7.15;3.75;;;;;;;;;;4970265;28;20325;-65
2022/04/14 06:39:57;;;;;;;7.95;4.18;;;;;;;;;;4969442;28;20380;-65
2022/04/14 06:42:22;;;;;;;9.00;4.57;;;;;;;;;;4970160;28;20456;-65
2022/04/14 06:44:48;;;;;;;6.53;3.53;;;;;;;;;;4969606;28;20452;-65
2022/04/14 06:47:13;;;;;;;9.10;3.88;;;;;;;;;;4970177;28;20449;-66
2022/04/14 06:49:38;;;;;;;11.30;3.97;;;;;;;;;;4969877;28;20034;-65
2022/04/14 06:52:04;;;;;;;7.68;4.18;;;;;;;;;;4968155;28;20055;-65
2022/04/14 06:54:29;;;;;;;9.77;3.53;;;;;;;;;;4951962;28;20356;-65
2022/04/14 06:56:54;;;;;;;9.25;4.50;;;;;;;;;;4971096;28;20033;-65
2022/04/14 06:59:20;;;;;;;9.40;4.55;;;;;;;;;;4969584;28;20511;-66
2022/04/14 07:01:45;;;;;;;8.65;4.05;;;;;;;;;;4969587;28;20179;-65
2022/04/14 07:04:10;;;;;;;8.75;4.00;;;;;;;;;;4969979;28;20478;-65
2022/04/14 07:06:36;;;;;;;8.32;4.40;;;;;;;;;;4969944;28;20033;-65
2022/04/14 07:09:01;;;;;;;8.57;4.50;;;;;;;;;;4969514;28;20108;-65
2022/04/14 07:11:27;;;;;;;8.93;4.53;;;;;;;;;;4969773;28;20455;-65
2022/04/14 07:13:52;;;;;;;9.60;4.28;;;;;;;;;;4969538;28;20440;-65
2022/04/14 07:16:17;;;;;;;10.20;4.38;;;;;;;;;;4969414;28;20433;-65
2022/04/14 07:18:43;;;;;;;9.35;4.40;;;;;;;;;;4970593;28;20333;-64
2022/04/14 07:21:08;;;;;;;10.02;4.30;;;;;;;;;;4969601;28;20037;-65
2022/04/14 07:23:34;;;;;;;6.55;3.85;;;;;;;;;;4969558;28;20384;-65
2022/04/14 07:25:59;;;;;;;7.35;4.18;;;;;;;;;;4968861;28;20346;-65
2022/04/14 07:28:24;;;;;;;8.35;3.92;;;;;;;;;;4969284;28;20508;-65
2022/04/14 07:30:50;;;;;;;8.05;3.70;;;;;;;;;;4969387;28;20586;-65
2022/04/14 07:33:15;;;;;;;8.05;4.13;;;;;;;;;;4969202;28;20440;-65
2022/04/14 07:35:41;;;;;;;8.18;3.72;;;;;;;;;;4968979;28;20416;-65
2022/04/14 07:38:06;;;;;;;8.45;4.20;;;;;;;;;;4969187;28;20052;-65
2022/04/14 07:40:31;;;;;;;6.88;3.75;;;;;;;;;;4969126;28;20459;-66
2022/04/14 07:42:57;;;;;;;7.68;3.97;;;;;;;;;;4968579;28;20065;-66
2022/04/14 07:45:23;;;;;;;8.00;3.80;;;;;;;;;;4969609;28;20119;-65
2022/04/14 07:47:48;;;;;;;10.32;3.97;;;;;;;;;;4969078;28;20331;-65
2022/04/14 07:50:16;;;;;;;7.32;3.75;;;;;;;;;;4968922;28;20384;-65
2022/04/14 07:52:44;;;;;;;9.40;4.70;;;;;;;;;;4970022;28;20348;-65
2022/04/14 07:55:10;;;;;;;8.90;4.35;;;;;;;;;;4969002;28;20316;-65
2022/04/14 07:57:35;;;;;;;8.90;4.35;;;;;;;;;;4969076;28;20392;-65
2022/04/14 08:00:00;;;;;;;6.03;3.20;;;;;;;;;;4969667;28;20056;-65
2022/04/14 08:02:25;;;;;;;10.07;4.40;;;;;;;;;;4969139;28;20500;-65
2022/04/14 08:04:51;;;;;;;11.63;5.10;;;;;;;;;;4968773;28;20475;-65
2022/04/14 08:07:17;;;;;;;8.93;4.00;;;;;;;;;;4969434;28;20336;-65
2022/04/14 08:09:42;;;;;;;7.07;3.85;;;;;;;;;;4951788;28;20033;-65
2022/04/14 08:12:08;;;;;;;6.65;3.45;;;;;;;;;;4969177;28;20424;-65
2022/04/14 08:14:34;;;;;;;7.68;3.45;;;;;;;;;;4968683;28;20421;-65
2022/04/14 08:17:04;;;;;;;7.82;3.45;;;;;;;;;;4969968;28;20436;-66
2022/04/14 08:19:30;;;;;;;9.75;4.35;;;;;;;;;;4968706;28;20096;-65
2022/04/14 08:21:55;;;;;;;10.43;3.83;;;;;;;;;;4970399;28;20086;-65
2022/04/14 08:24:20;;;;;;;10.25;4.35;;;;;;;;;;4970465;28;20029;-65
2022/04/14 08:26:46;;;;;;;8.52;3.63;;;;;;;;;;4969098;28;20056;-66
2022/04/14 08:29:11;;;;;;;8.25;3.75;;;;;;;;;;4968652;28;20133;-65
2022/04/14 08:31:38;;;;;;;8.35;3.78;;;;;;;;;;4969035;28;20463;-65
2022/04/14 08:34:04;;;;;;;9.38;3.78;;;;;;;;;;4968470;28;20368;-65
2022/04/14 08:36:29;;;;;;;8.80;4.57;;;;;;;;;;4950724;28;20088;-65
2022/04/14 08:38:55;;;;;;;8.77;3.65;;;;;;;;;;4972177;28;20452;-65
2022/04/14 08:41:23;;;;;;;7.00;3.45;;;;;;;;;;4972106;28;20456;-65
2022/04/14 08:44:02;;;;;;;8.15;4.07;;;;;;;;;;4950576;28;20538;-65
2022/04/14 08:46:28;;;;;;;;;;;;;;;;;;4952812;28;20584;-65
2022/04/14 08:48:56;;;;;;;6.80;3.58;;;;;;;;;;4952407;28;20328;-65
2022/04/14 08:51:22;;;;;;;5.70;3.25;;;;;;;;;;4952191;28;20437;-65
2022/04/14 08:53:48;;;;;;;6.75;3.38;;;;;;;;;;4953757;28;20508;-65
2022/04/14 08:56:14;;;;;;;6.75;3.55;;;;;;;;;;4952493;28;20440;-65
2022/04/14 08:58:42;;;;;;;7.72;3.67;;;;;;;;;;4951044;28;20338;-66
2022/04/14 09:01:07;;;;;;;6.38;3.05;;;;;;;;;;4952472;28;20365;-65
2022/04/14 09:03:34;;;;;;;6.22;2.92;;;;;;;;;;4952193;28;20388;-65
2022/04/14 09:06:00;;;;;;;8.10;3.67;;;;;;;;;;4950465;28;20421;-65
2022/04/14 09:08:26;;;;;;;6.82;2.97;;;;;;;;;;4953205;28;20176;-64
2022/04/14 09:10:52;;;;;;;7.07;3.72;;;;;;;;;;4952931;28;20394;-65
2022/04/14 09:13:18;;;;;;;7.95;3.65;;;;;;;;;;4953328;28;20472;-65
2022/04/14 09:15:44;;;;;;;6.55;3.38;;;;;;;;;;4952242;28;20438;-65
2022/04/14 09:18:09;;;;;;;6.80;3.33;;;;;;;;;;4953631;28;20398;-65
2022/04/14 09:20:37;;;;;;;7.05;3.17;;;;;;;;;;4952020;28;20336;-65
2022/04/14 09:23:18;;;;;;;6.65;3.05;;;;;;;;;;4951866;28;20069;-65
2022/04/14 09:25:45;;;;;;;7.25;3.50;;;;;;;;;;4951795;28;20076;-65
2022/04/14 09:28:12;;;;;;;7.80;3.58;;;;;;;;;;4951986;28;20388;-65
2022/04/14 09:30:37;;;;;;;5.53;3.28;;;;;;;;;;4952256;28;20038;-65
2022/04/14 09:33:03;;;;;;;8.90;3.50;;;;;;;;;;4952042;28;20456;-65
2022/04/14 09:35:31;;;;;;;8.07;3.40;;;;;;;;;;4951850;28;20436;-66
2022/04/14 09:38:07;;;;;;;5.00;3.15;;;;;;;;;;4952200;28;20449;-65
2022/04/14 09:40:37;;;;;;;5.88;3.20;;;;;;;;;;4951447;28;20421;-65
2022/04/14 09:43:04;;;;;;;6.22;3.35;;;;;;;;;;4953975;28;20022;-65
2022/04/14 09:45:30;;;;;;;6.00;3.20;;;;;;;;;;4972861;28;20025;-65
2022/04/14 09:48:07;;;;;;;6.57;3.05;;;;;;;;;;4971389;28;20313;-65
2022/04/14 09:50:39;;;;;;;5.72;2.85;;;;;;;;;;4972245;28;20420;-65
2022/04/14 09:53:07;;;;;;;6.70;3.53;;;;;;;;;;4970414;28;20463;-65
2022/04/14 09:56:03;;;;;;;7.78;3.22;;;;;;;;;;4970987;28;20460;-65
2022/04/14 09:58:31;;;;;;;7.63;3.72;;;;;;;;;;4969192;28;20249;-65
2022/04/14 10:00:57;;;;;;;8.05;3.40;;;;;;;;;;4970927;28;20352;-65
2022/04/14 10:03:27;;;;;;;6.75;4.05;;;;;;;;;;4971523;28;20404;-65
2022/04/14 10:05:55;;;;;;;6.38;3.15;;;;;;;;;;4970394;28;20528;-66
2022/04/14 10:08:22;;;;;;;4.38;2.60;;;;;;;;;;4970671;28;20033;-64
2022/04/14 10:10:48;;;;;;;6.32;2.83;;;;;;;;;;4971123;28;20517;-65
2022/04/14 10:13:15;;;;;;;4.80;2.95;;;;;;;;;;4970262;28;20365;-65
2022/04/14 10:15:46;;;;;;;5.18;2.63;;;;;;;;;;4971271;28;20389;-65
2022/04/14 10:18:16;;;;;;;6.53;3.10;;;;;;;;;;4970333;28;20408;-65
2022/04/14 10:20:44;;;;;;;5.55;2.60;;;;;;;;;;4970792;28;20104;-65
2022/04/14 10:23:12;;;;;;;5.97;3.35;;;;;;;;;;4970189;28;20387;-65
2022/04/14 10:25:38;;;;;;;6.15;2.67;;;;;;;;;;4970234;28;20049;-65
2022/04/14 10:28:14;;;;;;;5.15;2.70;;;;;;;;;;4971180;28;20495;-64
2022/04/14 10:30:56;;;;;;;7.10;3.10;;;;;;;;;;4953405;28;20383;-65
2022/04/14 10:33:22;;;;;;;7.20;3.75;;;;;;;;;;4971396;28;20424;-65
2022/04/14 10:35:49;;;;;;;6.40;2.72;;;;;;;;;;4970684;28;20448;-65
2022/04/14 10:38:19;;;;;;;5.78;3.00;;;;;;;;;;4970020;28;20441;-65
2022/04/14 10:40:47;;;;;;;5.18;2.67;;;;;;;;;;4969830;28;20444;-65
2022/04/14 10:43:14;;;;;;;4.97;2.70;;;;;;;;;;4970109;28;20618;-65
2022/04/14 10:45:48;;;;;;;4.53;2.53;;;;;;;;;;4952543;28;20325;-65
2022/04/14 10:48:25;;;;;;;5.85;2.63;;;;;;;;;;4969449;28;20376;-65
2022/04/14 10:51:16;;;;;;;5.00;2.95;;;;;;;;;;4970642;28;20396;-65
2022/04/14 10:54:11;;;;;;;5.80;3.08;;;;;;;;;;4969464;28;20392;-65
2022/04/14 10:56:36;;;;;;;5.15;2.85;;;;;;;;;;4956366;28;20045;-65
2022/04/14 10:59:12;;;;;;;4.93;3.17;;;;;;;;;;4970062;28;20435;-65
2022/04/14 11:01:48;;;;;;;4.68;2.78;;;;;;;;;;4969421;28;20425;-65
2022/04/14 11:04:36;;;;;;;6.82;3.10;;;;;;;;;;4969337;28;20340;-65
2022/04/14 11:07:10;;;;;;;5.28;3.25;;;;;;;;;;4970644;28;20440;-65
2022/04/14 11:09:38;;;;;;;5.55;2.50;;;;;;;;;;4969754;28;20425;-65
2022/04/14 11:12:05;;;;;;;5.13;2.35;;;;;;;;;;4969354;28;20048;-65
2022/04/14 11:14:38;;;;;;;5.30;2.88;;;;;;;;;;4969804;28;20503;-66
2022/04/14 11:17:03;;;;;;;4.53;2.58;;;;;;;;;;4951625;28;20349;-65
2022/04/14 11:19:30;;;;;;;4.55;2.83;;;;;;;;;;4971311;28;20349;-66
2022/04/14 11:22:01;;;;;;;4.50;2.53;;;;;;;;;;4969266;28;20507;-66
2022/04/14 11:24:35;;;;;;;5.50;2.35;;;;;;;;;;4969207;28;20091;-65
2022/04/14 11:27:28;;;;;;;4.60;2.60;;;;;;;;;;4969333;28;20376;-65
2022/04/14 11:30:01;;;;;;;4.28;2.28;;;;;;;;;;4969488;28;20451;-66
2022/04/14 11:32:40;;;;;;;4.82;2.50;;;;;;;;;;4970182;28;20405;-66
2022/04/14 11:35:08;;;;;;;4.65;2.67;;;;;;;;;;4969140;28;20034;-65
2022/04/14 11:37:42;;;;;;;6.13;2.70;;;;;;;;;;4969322;28;20405;-65
2022/04/14 11:40:17;;;;;;;5.00;2.13;;;;;;;;;;4969496;28;20413;-65
2022/04/14 11:42:47;;;;;;;5.50;2.55;;;;;;;;;;4969343;28;20345;-65
2022/04/14 11:45:13;;;;;;;4.32;2.47;;;;;;;;;;4969074;28;20472;-65
2022/04/14 11:47:39;;;;;;;4.97;2.53;;;;;;;;;;4969031;28;20664;-65
2022/04/14 11:50:06;;;;;;;6.60;2.78;;;;;;;;;;4970230;28;20380;-65
2022/04/14 11:52:32;;;;;;;4.30;2.28;;;;;;;;;;4969136;28;20428;-65
2022/04/14 11:54:58;;;;;;;4.35;2.45;;;;;;;;;;4969008;28;20436;-66
2022/04/14 11:57:28;;;;;;;4.63;2.95;;;;;;;;;;4968978;28;20460;-65
2022/04/14 11:59:56;;;;;;;5.00;2.92;;;;;;;;;;4969453;28;20467;-65
2022/04/14 12:02:26;;;;;;;4.63;2.33;;;;;;;;;;4968888;28;20168;-64
2022/04/14 12:04:56;;;;;;;5.10;2.90;;;;;;;;;;4969533;28;20432;-65
2022/04/14 12:07:23;;;;;;;4.55;2.13;;;;;;;;;;4969016;28;20092;-65
2022/04/14 12:10:05;;;;;;;4.35;2.63;;;;;;;;;;4970329;28;20444;-64
2022/04/14 12:12:32;;;;;;;3.33;2.00;;;;;;;;;;4972041;28;20084;-65
2022/04/14 12:14:58;;;;;;;5.88;2.47;;;;;;;;;;4972613;28;20512;-65
2022/04/14 12:17:25;;;;;;;3.83;2.30;;;;;;;;;;4973317;28;20427;-65
2022/04/14 12:19:55;;;;;;;5.18;2.20;;;;;;;;;;4972955;28;20360;-64
2022/04/14 12:22:21;;;;;;;4.80;2.45;;;;;;;;;;4972664;28;20030;-64
2022/04/14 12:24:58;;;;;;;3.72;2.13;;;;;;;;;;4972717;28;20056;-65
2022/04/14 12:27:29;;;;;;;5.28;2.50;;;;;;;;;;4972465;28;20383;-64
2022/04/14 12:29:55;;;;;;;7.47;2.25;;;;;;;;;;4973637;28;20428;-64
2022/04/14 12:32:28;;;;;;;6.07;2.30;;;;;;;;;;4972563;28;20029;-64
2022/04/14 12:34:54;;;;;;;3.67;2.33;;;;;;;;;;4972252;28;20424;-65
2022/04/14 12:37:19;;;;;;;5.15;2.60;;;;;;;;;;4972446;28;20459;-64
2022/04/14 12:40:13;;;;;;;4.07;2.55;;;;;;;;;;4972369;28;20460;-65
2022/04/14 12:42:40;;;;;;;5.25;2.33;;;;;;;;;;4972192;28;20056;-64
2022/04/14 12:45:09;;;;;;;4.25;2.40;;;;;;;;;;4971930;28;20508;-64
2022/04/14 12:47:35;;;;;;;3.55;2.17;;;;;;;;;;4973819;28;20471;-64
2022/04/14 12:50:02;;;;;;;3.00;2.10;;;;;;;;;;4972057;28;20452;-65
2022/04/14 12:52:27;;;;;;;5.68;2.65;;;;;;;;;;4972352;28;20348;-65
2022/04/14 12:54:53;;;;;;;4.35;2.35;;;;;;;;;;4972568;28;20384;-64
2022/04/14 12:57:20;;;;;;;4.47;2.40;;;;;;;;;;4972235;28;20429;-64
2022/04/14 13:00:07;;;;;;;4.57;2.10;;;;;;;;;;4971482;28;20425;-65
2022/04/14 13:02:32;;;;;;;4.88;1.95;;;;;;;;;;4971866;28;20524;-64
2022/04/14 13:05:26;;;;;;;5.10;2.47;;;;;;;;;;4972662;28;20429;-65
2022/04/14 13:07:53;;;;;;;3.08;1.88;;;;;;;;;;4969693;28;20432;-64
2022/04/14 13:10:30;;;;;;;7.18;1.83;;;;;;;;;;4971552;28;20534;-64
2022/04/14 13:12:57;;;;;;;3.38;1.88;;;;;;;;;;4971666;28;20330;-64
2022/04/14 13:15:23;;;;;;;4.68;2.40;;;;;;;;;;4971637;28;20440;-64
2022/04/14 13:17:49;;;;;;;3.58;2.03;;;;;;;;;;4971568;28;20366;-65
2022/04/14 13:20:20;;;;;;;4.78;2.03;;;;;;;;;;4971550;28;20025;-66
2022/04/14 13:22:47;;;;;;;2.45;1.88;;;;;;;;;;4971711;28;20426;-65
2022/04/14 13:25:13;;;;;;;3.80;1.77;;;;;;;;;;4971164;28;20025;-64
2022/04/14 13:27:38;;;;;;;3.63;2.08;;;;;;;;;;4972212;28;20456;-64
2022/04/14 13:30:04;;;;;;;5.75;2.15;;;;;;;;;;4972193;28;20408;-64
2022/04/14 13:32:30;;;;;;;6.80;2.03;;;;;;;;;;4971467;28;20561;-64
2022/04/14 13:34:55;;;;;;;3.78;1.90;;;;;;;;;;4971142;28;20462;-64
2022/04/14 13:37:21;;;;;;;4.05;2.05;;;;;;;;;;4953844;28;20399;-64
2022/04/14 13:39:46;;;;;;;3.97;2.03;;;;;;;;;;4971029;28;20026;-65
2022/04/14 13:42:12;;;;;;;3.40;1.83;;;;;;;;;;4971712;28;20611;-65
2022/04/14 13:44:37;;;;;;;4.03;1.80;;;;;;;;;;4971697;28;20503;-65
2022/04/14 13:47:02;;;;;;;1.95;1.67;;;;;;;;;;4953475;28;20348;-65
2022/04/14 13:49:28;;;;;;;3.03;1.90;;;;;;;;;;4970934;28;20475;-64
2022/04/14 13:51:53;;;;;;;4.07;2.20;;;;;;;;;;4970939;28;20333;-65
2022/04/14 13:54:18;;;;;;;3.03;1.85;;;;;;;;;;4972714;28;20440;-65
2022/04/14 13:56:44;;;;;;;4.25;2.25;;;;;;;;;;4971253;28;20038;-64
2022/04/14 13:59:09;;;;;;;3.20;1.90;;;;;;;;;;4970890;28;20372;-64
2022/04/14 14:01:35;;;;;;;3.53;2.00;;;;;;;;;;4970747;28;20499;-64
2022/04/14 14:04:00;;;;;;;3.47;1.80;;;;;;;;;;4971149;28;20447;-64
2022/04/14 14:06:26;;;;;;;4.70;1.92;;;;;;;;;;4970302;28;20452;-65
2022/04/14 14:08:52;;;;;;;4.22;1.67;;;;;;;;;;4970628;28;20492;-64
2022/04/14 14:11:18;;;;;;;3.30;1.95;;;;;;;;;;4970711;28;20455;-64
2022/04/14 14:13:44;;;;;;;4.22;1.88;;;;;;;;;;4954965;28;20491;-64
2022/04/14 14:16:10;;;;;;;3.35;2.08;;;;;;;;;;4971623;28;20415;-64
2022/04/14 14:18:35;;;;;;;4.55;2.13;;;;;;;;;;4970829;28;20388;-65
2022/04/14 14:21:00;;;;;;;3.83;1.60;;;;;;;;;;4970740;28;20448;-64
2022/04/14 14:23:25;;;;;;;3.90;1.92;;;;;;;;;;4970839;28;20021;-65
2022/04/14 14:25:51;;;;;;;5.65;1.90;;;;;;;;;;4970650;28;20421;-64
2022/04/14 14:28:17;;;;;;;3.65;1.70;;;;;;;;;;4970490;28;20448;-64
2022/04/14 14:30:42;;;;;;;3.28;1.67;;;;;;;;;;4970367;28;20337;-65
2022/04/14 14:33:08;;;;;;;3.70;1.98;;;;;;;;;;4969977;28;20029;-65
2022/04/14 14:35:33;;;;;;;3.40;2.08;;;;;;;;;;4969099;28;20030;-64
2022/04/14 14:37:58;;;;;;;3.50;2.08;;;;;;;;;;4970080;28;20492;-64
2022/04/14 14:40:26;;;;;;;2.22;1.70;;;;;;;;;;4970189;28;20459;-64
2022/04/14 14:42:52;;;;;;;4.53;2.17;;;;;;;;;;4970626;28;20293;-65